createdAt,value
2018-08-31T00:01:03.330Z,12.9
2018-08-31T00:02:10.546Z,12.9
2018-08-31T00:03:17.770Z,12.9
2018-08-31T00:04:24.985Z,12.8
2018-08-31T00:05:32.211Z,12.8
2018-08-31T00:06:39.432Z,12.8
2018-08-31T00:07:46.664Z,12.8
2018-08-31T00:08:53.917Z,12.8
2018-08-31T00:10:01.129Z,12.8
2018-08-31T00:11:08.074Z,12.8
2018-08-31T00:12:15.288Z,12.8
2018-08-31T00:13:22.504Z,12.8
2018-08-31T00:14:29.722Z,12.9
2018-08-31T00:15:36.946Z,12.8
2018-08-31T00:16:44.169Z,12.8
2018-08-31T00:17:51.384Z,12.9
2018-08-31T00:18:58.599Z,12.9
2018-08-31T00:20:05.814Z,12.9
2018-08-31T00:21:13.026Z,12.9
2018-08-31T00:22:20.242Z,12.9
2018-08-31T00:23:27.456Z,12.9
2018-08-31T00:24:34.671Z,12.9
2018-08-31T00:25:41.882Z,12.9
2018-08-31T00:26:48.846Z,12.9
2018-08-31T00:27:56.059Z,12.9
2018-08-31T00:29:03.289Z,12.9
2018-08-31T00:30:10.505Z,12.9
2018-08-31T00:31:17.451Z,12.9
2018-08-31T00:32:24.667Z,12.9
2018-08-31T00:33:31.884Z,12.9
2018-08-31T00:34:39.104Z,12.9
2018-08-31T00:35:46.045Z,13
2018-08-31T00:36:53.261Z,13
2018-08-31T00:38:00.485Z,13.1
2018-08-31T00:39:07.705Z,13.1
2018-08-31T00:40:14.944Z,13.1
2018-08-31T00:41:22.160Z,13.1
2018-08-31T00:42:29.384Z,13.1
2018-08-31T00:43:36.597Z,13.2
2018-08-31T00:44:43.812Z,13.1
2018-08-31T00:45:51.030Z,13.1
2018-08-31T00:46:58.246Z,13.2
2018-08-31T00:48:05.471Z,13.2
2018-08-31T00:49:12.687Z,13.2
2018-08-31T00:50:19.908Z,13.2
2018-08-31T00:51:26.851Z,13.2
2018-08-31T00:52:33.803Z,13.2
2018-08-31T00:53:40.748Z,13.2
2018-08-31T00:54:47.967Z,13.2
2018-08-31T00:55:55.181Z,13.2
2018-08-31T00:57:02.118Z,13.2
2018-08-31T00:58:09.365Z,13.2
2018-08-31T00:59:16.298Z,13.2
2018-08-31T01:00:23.517Z,13.2
2018-08-31T01:01:30.455Z,13.2
2018-08-31T01:02:37.666Z,13.2
2018-08-31T01:03:44.607Z,13.2
2018-08-31T01:04:51.828Z,13.2
2018-08-31T01:05:59.046Z,13.3
2018-08-31T01:07:06.272Z,13.2
2018-08-31T01:08:13.491Z,13.2
2018-08-31T01:09:20.709Z,13.2
2018-08-31T01:10:27.941Z,13.2
2018-08-31T01:11:35.152Z,13.3
2018-08-31T01:12:42.368Z,13.3
2018-08-31T01:13:49.304Z,13.3
2018-08-31T01:14:56.530Z,13.3
2018-08-31T01:16:03.748Z,13.3
2018-08-31T01:17:10.961Z,13.3
2018-08-31T01:18:18.176Z,13.3
2018-08-31T01:19:25.404Z,13.3
2018-08-31T01:20:32.360Z,13.3
2018-08-31T01:21:39.578Z,13.3
2018-08-31T01:22:46.516Z,13.3
2018-08-31T01:23:53.733Z,13.3
2018-08-31T01:25:00.676Z,13.3
2018-08-31T01:26:07.634Z,13.4
2018-08-31T01:27:14.859Z,13.4
2018-08-31T01:28:22.068Z,13.4
2018-08-31T01:29:29.298Z,13.4
2018-08-31T01:30:36.515Z,13.3
2018-08-31T01:31:43.743Z,13.3
2018-08-31T01:32:50.960Z,13.4
2018-08-31T01:33:57.896Z,13.4
2018-08-31T01:35:05.106Z,13.4
2018-08-31T01:36:12.341Z,13.4
2018-08-31T01:37:19.558Z,13.4
2018-08-31T01:38:26.792Z,13.4
2018-08-31T01:39:34.026Z,13.4
2018-08-31T01:40:41.244Z,13.4
2018-08-31T01:41:48.181Z,13.4
2018-08-31T01:42:55.125Z,13.4
2018-08-31T01:44:02.352Z,13.4
2018-08-31T01:45:09.009Z,13.4
2018-08-31T01:46:16.227Z,13.4
2018-08-31T01:47:23.459Z,13.4
2018-08-31T01:48:30.676Z,13.4
2018-08-31T01:49:37.900Z,13.4
2018-08-31T01:50:44.833Z,13.4
2018-08-31T01:51:52.063Z,13.4
2018-08-31T01:52:59.279Z,13.4
2018-08-31T01:54:06.499Z,13.4
2018-08-31T01:55:13.452Z,13.5
2018-08-31T01:56:20.394Z,13.5
2018-08-31T01:57:27.607Z,13.5
2018-08-31T01:58:34.561Z,13.5
2018-08-31T01:59:41.780Z,13.5
2018-08-31T02:00:49.000Z,13.5
2018-08-31T02:01:56.224Z,13.5
2018-08-31T02:03:03.444Z,13.5
2018-08-31T02:04:10.737Z,13.6
2018-08-31T02:05:18.241Z,13.5
2018-08-31T02:06:25.456Z,13.5
2018-08-31T02:07:32.675Z,13.5
2018-08-31T02:08:39.889Z,13.5
2018-08-31T02:09:47.106Z,13.5
2018-08-31T02:10:54.319Z,13.6
2018-08-31T02:12:01.541Z,13.5
2018-08-31T02:13:08.745Z,13.5
2018-08-31T02:14:15.710Z,13.5
2018-08-31T02:15:22.655Z,13.5
2018-08-31T02:16:29.888Z,13.5
2018-08-31T02:17:37.109Z,13.5
2018-08-31T02:18:44.043Z,13.5
2018-08-31T02:19:51.261Z,13.5
2018-08-31T02:20:58.476Z,13.5
2018-08-31T02:22:05.693Z,13.5
2018-08-31T02:23:12.905Z,13.4
2018-08-31T02:24:20.133Z,13.4
2018-08-31T02:25:27.348Z,13.5
2018-08-31T02:26:34.565Z,13.5
2018-08-31T02:27:41.503Z,13.5
2018-08-31T02:28:48.724Z,13.5
2018-08-31T02:29:55.947Z,13.5
2018-08-31T02:31:03.158Z,13.5
2018-08-31T02:32:10.375Z,13.5
2018-08-31T02:33:17.323Z,13.5
2018-08-31T02:34:24.544Z,13.5
2018-08-31T02:35:31.485Z,13.5
2018-08-31T02:36:38.715Z,13.5
2018-08-31T02:37:45.935Z,13.4
2018-08-31T02:38:53.149Z,13.4
2018-08-31T02:40:00.365Z,13.4
2018-08-31T02:41:07.027Z,13.4
2018-08-31T02:42:14.241Z,13.4
2018-08-31T02:43:21.459Z,13.4
2018-08-31T02:44:28.672Z,13.4
2018-08-31T02:45:35.886Z,13.3
2018-08-31T02:46:43.107Z,13.3
2018-08-31T02:47:50.319Z,13.3
2018-08-31T02:48:57.536Z,13.3
2018-08-31T02:50:04.753Z,13.3
2018-08-31T02:51:11.971Z,13.3
2018-08-31T02:52:18.921Z,13.3
2018-08-31T02:53:26.138Z,13.3
2018-08-31T02:54:33.371Z,13.2
2018-08-31T02:55:40.590Z,13.2
2018-08-31T02:56:47.812Z,13.2
2018-08-31T02:57:55.035Z,13.2
2018-08-31T02:59:02.242Z,13.2
2018-08-31T03:00:09.456Z,13.2
2018-08-31T03:01:16.678Z,13.2
2018-08-31T03:02:23.899Z,13.2
2018-08-31T03:03:31.133Z,13.2
2018-08-31T03:04:38.347Z,13.2
2018-08-31T03:05:45.652Z,13.2
2018-08-31T03:06:52.577Z,13.2
2018-08-31T03:07:59.805Z,13.2
2018-08-31T03:09:07.017Z,13.2
2018-08-31T03:10:13.963Z,13.2
2018-08-31T03:11:21.187Z,13.2
2018-08-31T03:12:28.465Z,13.2
2018-08-31T03:13:35.679Z,13.1
2018-08-31T03:14:42.893Z,13.1
2018-08-31T03:15:49.849Z,13.1
2018-08-31T03:16:57.058Z,13.1
2018-08-31T03:18:04.283Z,13
2018-08-31T03:19:11.497Z,13
2018-08-31T03:20:18.442Z,13
2018-08-31T03:21:25.172Z,13
2018-08-31T03:22:32.357Z,13
2018-08-31T03:23:39.584Z,12.9
2018-08-31T03:24:46.795Z,12.9
2018-08-31T03:25:54.014Z,12.9
2018-08-31T03:27:01.247Z,12.9
2018-08-31T03:28:08.467Z,13
2018-08-31T03:29:15.704Z,12.9
2018-08-31T03:30:22.921Z,12.9
2018-08-31T03:31:30.140Z,12.9
2018-08-31T03:32:37.350Z,12.9
2018-08-31T03:33:44.564Z,12.9
2018-08-31T03:34:51.792Z,12.9
2018-08-31T03:35:59.002Z,12.9
2018-08-31T03:37:06.492Z,12.9
2018-08-31T03:38:14.033Z,12.8
2018-08-31T03:39:21.245Z,12.8
2018-08-31T03:40:28.474Z,12.8
2018-08-31T03:41:35.418Z,12.8
2018-08-31T03:42:42.636Z,12.8
2018-08-31T03:43:49.854Z,12.8
2018-08-31T03:44:57.070Z,12.8
2018-08-31T03:46:04.282Z,12.7
2018-08-31T03:47:11.498Z,12.7
2018-08-31T03:48:18.728Z,12.7
2018-08-31T03:49:25.934Z,12.7
2018-08-31T03:50:33.148Z,12.7
2018-08-31T03:51:40.365Z,12.7
2018-08-31T03:52:47.586Z,12.7
2018-08-31T03:53:54.559Z,12.7
2018-08-31T03:55:01.778Z,12.7
2018-08-31T03:56:09.007Z,12.7
2018-08-31T03:57:16.223Z,12.6
2018-08-31T03:58:23.436Z,12.6
2018-08-31T03:59:30.377Z,12.6
2018-08-31T04:00:37.591Z,12.6
2018-08-31T04:01:44.536Z,12.6
2018-08-31T04:02:51.750Z,12.6
2018-08-31T04:03:58.965Z,12.6
2018-08-31T04:05:06.183Z,12.6
2018-08-31T04:06:13.116Z,12.6
2018-08-31T04:07:20.344Z,12.6
2018-08-31T04:08:27.558Z,12.6
2018-08-31T04:09:34.773Z,12.6
2018-08-31T04:10:41.710Z,12.6
2018-08-31T04:11:48.927Z,12.6
2018-08-31T04:12:56.146Z,12.6
2018-08-31T04:14:03.145Z,12.6
2018-08-31T04:15:10.506Z,12.6
2018-08-31T04:16:18.074Z,12.7
2018-08-31T04:17:25.295Z,12.7
2018-08-31T04:18:32.270Z,12.7
2018-08-31T04:19:39.491Z,12.7
2018-08-31T04:20:46.438Z,12.7
2018-08-31T04:21:53.655Z,12.7
2018-08-31T04:23:00.613Z,12.7
2018-08-31T04:24:07.829Z,12.7
2018-08-31T04:25:15.048Z,12.7
2018-08-31T04:26:22.266Z,12.7
2018-08-31T04:27:29.483Z,12.7
2018-08-31T04:28:36.703Z,12.7
2018-08-31T04:29:43.647Z,12.7
2018-08-31T04:30:50.587Z,12.7
2018-08-31T04:31:57.816Z,12.7
2018-08-31T04:33:05.026Z,12.7
2018-08-31T04:34:12.110Z,12.8
2018-08-31T04:35:19.696Z,12.8
2018-08-31T04:36:26.655Z,12.8
2018-08-31T04:37:33.601Z,12.8
2018-08-31T04:38:40.539Z,12.8
2018-08-31T04:39:47.489Z,12.8
2018-08-31T04:40:54.441Z,12.8
2018-08-31T04:42:01.376Z,12.8
2018-08-31T04:43:08.598Z,12.8
2018-08-31T04:44:15.806Z,12.8
2018-08-31T04:45:23.029Z,12.8
2018-08-31T04:46:29.958Z,12.8
2018-08-31T04:47:37.172Z,12.8
2018-08-31T04:48:44.387Z,12.8
2018-08-31T04:49:51.046Z,12.8
2018-08-31T04:50:58.273Z,12.8
2018-08-31T04:52:05.482Z,12.8
2018-08-31T04:53:12.432Z,12.9
2018-08-31T04:54:19.665Z,12.9
2018-08-31T04:55:26.596Z,12.9
2018-08-31T04:56:33.544Z,12.9
2018-08-31T04:57:40.260Z,12.8
2018-08-31T04:58:47.568Z,12.8
2018-08-31T04:59:54.602Z,12.9
2018-08-31T05:01:01.551Z,12.9
2018-08-31T05:02:08.769Z,12.9
2018-08-31T05:03:15.984Z,12.9
2018-08-31T05:04:23.204Z,12.9
2018-08-31T05:05:30.156Z,12.9
2018-08-31T05:06:37.379Z,12.9
2018-08-31T05:07:44.643Z,13
2018-08-31T05:08:51.864Z,13
2018-08-31T05:09:59.074Z,13
2018-08-31T05:11:06.295Z,13
2018-08-31T05:12:13.516Z,13
2018-08-31T05:13:20.728Z,13
2018-08-31T05:14:27.679Z,13
2018-08-31T05:15:34.895Z,13
2018-08-31T05:16:42.106Z,13
2018-08-31T05:17:49.325Z,12.9
2018-08-31T05:18:56.274Z,12.9
2018-08-31T05:20:03.489Z,12.9
2018-08-31T05:21:10.721Z,12.9
2018-08-31T05:22:18.025Z,12.9
2018-08-31T05:23:25.079Z,13
2018-08-31T05:24:32.294Z,13
2018-08-31T05:25:39.515Z,13
2018-08-31T05:26:46.731Z,12.9
2018-08-31T05:27:53.951Z,13
2018-08-31T05:29:01.164Z,13
2018-08-31T05:30:08.377Z,13
2018-08-31T05:31:15.596Z,13
2018-08-31T05:32:22.831Z,13
2018-08-31T05:33:30.055Z,13
2018-08-31T05:34:37.282Z,13
2018-08-31T05:35:44.217Z,13.1
2018-08-31T05:36:51.161Z,13.1
2018-08-31T05:37:58.097Z,13.1
2018-08-31T05:39:05.315Z,13.1
2018-08-31T05:40:12.570Z,13.1
2018-08-31T05:41:19.774Z,13.1
2018-08-31T05:42:26.991Z,13.1
2018-08-31T05:43:34.208Z,13.2
2018-08-31T05:44:41.422Z,13.2
2018-08-31T05:45:48.356Z,13.2
2018-08-31T05:46:55.576Z,13.2
2018-08-31T05:48:02.794Z,13.2
2018-08-31T05:49:10.033Z,13.2
2018-08-31T05:50:17.244Z,13.3
2018-08-31T05:51:24.182Z,13.3
2018-08-31T05:52:31.128Z,13.3
2018-08-31T05:53:38.526Z,13.3
2018-08-31T05:54:46.081Z,13.3
2018-08-31T05:55:53.316Z,13.3
2018-08-31T05:57:00.528Z,13.3
2018-08-31T05:58:07.749Z,13.3
2018-08-31T05:59:14.704Z,13.3
2018-08-31T06:00:21.919Z,13.4
2018-08-31T06:01:28.614Z,13.4
2018-08-31T06:02:35.838Z,13.4
2018-08-31T06:03:43.069Z,13.4
2018-08-31T06:04:50.297Z,13.5
2018-08-31T06:05:57.500Z,13.6
2018-08-31T06:07:04.721Z,13.6
2018-08-31T06:08:11.936Z,13.6
2018-08-31T06:09:19.156Z,13.6
2018-08-31T06:10:26.365Z,13.6
2018-08-31T06:11:33.585Z,13.7
2018-08-31T06:12:40.809Z,13.7
2018-08-31T06:13:48.024Z,13.7
2018-08-31T06:14:55.240Z,13.7
2018-08-31T06:16:02.461Z,13.7
2018-08-31T06:17:09.695Z,13.7
2018-08-31T06:18:16.909Z,13.7
2018-08-31T06:19:24.129Z,13.7
2018-08-31T06:20:31.073Z,13.7
2018-08-31T06:21:38.318Z,13.7
2018-08-31T06:22:45.542Z,13.7
2018-08-31T06:23:52.756Z,13.8
2018-08-31T06:24:59.691Z,13.8
2018-08-31T06:26:06.900Z,13.7
2018-08-31T06:27:14.433Z,13.8
2018-08-31T06:28:21.665Z,13.8
2018-08-31T06:29:28.887Z,13.8
2018-08-31T06:30:35.830Z,13.9
2018-08-31T06:31:43.061Z,13.9
2018-08-31T06:32:50.285Z,14
2018-08-31T06:33:57.664Z,14.1
2018-08-31T06:35:05.117Z,14.1
2018-08-31T06:36:12.335Z,14.1
2018-08-31T06:37:19.293Z,14.1
2018-08-31T06:38:26.238Z,14.2
2018-08-31T06:39:33.172Z,14.3
2018-08-31T06:40:40.415Z,14.3
2018-08-31T06:41:47.358Z,14.3
2018-08-31T06:42:54.596Z,14.1
2018-08-31T06:44:01.819Z,14.2
2018-08-31T06:45:09.066Z,14.2
2018-08-31T06:46:16.283Z,14.2
2018-08-31T06:47:23.499Z,14.2
2018-08-31T06:48:30.720Z,14.2
2018-08-31T06:49:37.939Z,14.3
2018-08-31T06:50:45.151Z,14.4
2018-08-31T06:51:52.368Z,14.4
2018-08-31T06:52:59.592Z,14.5
2018-08-31T06:54:06.822Z,14.5
2018-08-31T06:55:14.036Z,14.6
2018-08-31T06:56:21.263Z,14.5
2018-08-31T06:57:28.482Z,14.5
2018-08-31T06:58:35.710Z,14.6
2018-08-31T06:59:42.931Z,14.6
2018-08-31T07:00:50.201Z,14.6
2018-08-31T07:01:57.427Z,14.6
2018-08-31T07:03:04.667Z,14.6
2018-08-31T07:04:11.907Z,14.5
2018-08-31T07:05:19.225Z,14.5
2018-08-31T07:06:26.445Z,14.6
2018-08-31T07:07:33.674Z,14.6
2018-08-31T07:08:40.889Z,14.7
2018-08-31T07:09:48.115Z,14.8
2018-08-31T07:10:55.336Z,14.8
2018-08-31T07:12:02.324Z,14.9
2018-08-31T07:13:09.541Z,15
2018-08-31T07:14:16.780Z,14.9
2018-08-31T07:15:24.001Z,14.9
2018-08-31T07:16:31.221Z,14.9
2018-08-31T07:17:38.435Z,14.8
2018-08-31T07:18:45.655Z,14.8
2018-08-31T07:19:52.715Z,14.9
2018-08-31T07:21:00.174Z,14.9
2018-08-31T07:22:07.402Z,15
2018-08-31T07:23:14.639Z,15
2018-08-31T07:24:21.861Z,14.9
2018-08-31T07:25:29.105Z,15
2018-08-31T07:26:36.380Z,15.2
2018-08-31T07:27:43.937Z,15.1
2018-08-31T07:28:51.147Z,15.2
2018-08-31T07:29:58.368Z,15.2
2018-08-31T07:31:05.596Z,15.2
2018-08-31T07:32:12.728Z,15.2
2018-08-31T07:33:20.028Z,15.1
2018-08-31T07:34:27.252Z,15.2
2018-08-31T07:35:34.477Z,15.2
2018-08-31T07:36:41.689Z,15.2
2018-08-31T07:37:48.629Z,15.3
2018-08-31T07:38:55.867Z,15.3
2018-08-31T07:40:03.289Z,15.4
2018-08-31T07:41:10.525Z,15.5
2018-08-31T07:42:17.775Z,15.5
2018-08-31T07:43:25.040Z,15.5
2018-08-31T07:44:32.273Z,15.5
2018-08-31T07:45:39.220Z,15.5
2018-08-31T07:46:46.442Z,15.5
2018-08-31T07:47:53.958Z,15.5
2018-08-31T07:49:01.397Z,15.6
2018-08-31T07:50:08.632Z,15.7
2018-08-31T07:51:15.592Z,15.7
2018-08-31T07:52:22.835Z,15.8
2018-08-31T07:53:29.785Z,15.9
2018-08-31T07:54:36.463Z,15.9
2018-08-31T07:55:43.686Z,15.6
2018-08-31T07:56:50.907Z,15.6
2018-08-31T07:57:57.858Z,15.7
2018-08-31T07:59:05.074Z,15.8
2018-08-31T08:00:12.300Z,15.8
2018-08-31T08:01:19.271Z,15.7
2018-08-31T08:02:26.488Z,15.6
2018-08-31T08:03:33.461Z,15.7
2018-08-31T08:04:40.401Z,15.7
2018-08-31T08:05:47.350Z,15.6
2018-08-31T08:06:54.569Z,15.6
2018-08-31T08:08:01.531Z,15.6
2018-08-31T08:09:08.763Z,15.7
2018-08-31T08:10:15.446Z,15.8
2018-08-31T08:11:22.671Z,15.8
2018-08-31T08:12:29.897Z,15.9
2018-08-31T08:13:37.137Z,15.7
2018-08-31T08:14:44.403Z,15.7
2018-08-31T08:15:51.887Z,15.6
2018-08-31T08:16:58.562Z,15.6
2018-08-31T08:18:05.498Z,15.7
2018-08-31T08:19:12.427Z,15.7
2018-08-31T08:20:19.634Z,15.8
2018-08-31T08:21:26.581Z,15.8
2018-08-31T08:22:33.795Z,15.7
2018-08-31T08:23:41.015Z,15.7
2018-08-31T08:24:47.961Z,15.8
2018-08-31T08:25:54.897Z,15.9
2018-08-31T08:27:02.116Z,16.1
2018-08-31T08:28:09.342Z,16.2
2018-08-31T08:29:16.616Z,16.2
2018-08-31T08:30:23.834Z,16.2
2018-08-31T08:31:30.832Z,16.2
2018-08-31T08:32:38.071Z,16.1
2018-08-31T08:33:45.290Z,16.1
2018-08-31T08:34:52.520Z,16.1
2018-08-31T08:35:59.904Z,16.3
2018-08-31T08:37:07.391Z,16.4
2018-08-31T08:38:14.633Z,16.5
2018-08-31T08:39:21.852Z,16.5
2018-08-31T08:40:29.082Z,16.4
2018-08-31T08:41:36.298Z,16.3
2018-08-31T08:42:43.526Z,16.2
2018-08-31T08:43:50.470Z,16.1
2018-08-31T08:44:57.697Z,16.2
2018-08-31T08:46:04.913Z,16.3
2018-08-31T08:47:12.138Z,16.1
2018-08-31T08:48:19.483Z,16.1
2018-08-31T08:49:26.954Z,16
2018-08-31T08:50:34.167Z,16.1
2018-08-31T08:51:41.388Z,16
2018-08-31T08:52:48.606Z,16.1
2018-08-31T08:53:55.869Z,16
2018-08-31T08:55:03.072Z,16.1
2018-08-31T08:56:10.029Z,16.2
2018-08-31T08:57:17.254Z,16.3
2018-08-31T08:58:24.837Z,16.2
2018-08-31T08:59:32.180Z,16.1
2018-08-31T09:00:39.409Z,16.2
2018-08-31T09:01:46.647Z,16.1
2018-08-31T09:02:53.871Z,15.9
2018-08-31T09:04:00.829Z,16
2018-08-31T09:05:07.792Z,16.1
2018-08-31T09:06:15.010Z,16.2
2018-08-31T09:07:22.229Z,16.4
2018-08-31T09:08:29.449Z,16.5
2018-08-31T09:09:36.666Z,16.4
2018-08-31T09:10:43.936Z,16.3
2018-08-31T09:11:50.987Z,16.4
2018-08-31T09:12:58.340Z,16.7
2018-08-31T09:14:05.562Z,16.9
2018-08-31T09:15:12.776Z,17.2
2018-08-31T09:16:20.001Z,17.2
2018-08-31T09:17:26.951Z,17.1
2018-08-31T09:18:34.397Z,17
2018-08-31T09:19:41.913Z,17
2018-08-31T09:20:48.859Z,16.9
2018-08-31T09:21:55.810Z,16.9
2018-08-31T09:23:03.030Z,17.1
2018-08-31T09:24:10.255Z,17
2018-08-31T09:25:17.466Z,17
2018-08-31T09:26:24.695Z,17.2
2018-08-31T09:27:31.920Z,17.3
2018-08-31T09:28:39.165Z,17.4
2018-08-31T09:29:46.389Z,17.4
2018-08-31T09:30:53.623Z,17.1
2018-08-31T09:32:00.850Z,17.1
2018-08-31T09:33:08.072Z,17
2018-08-31T09:34:15.302Z,16.9
2018-08-31T09:35:22.231Z,17.1
2018-08-31T09:36:29.459Z,17.2
2018-08-31T09:37:36.696Z,17.3
2018-08-31T09:38:43.643Z,17.4
2018-08-31T09:39:50.858Z,17.4
2018-08-31T09:40:58.074Z,17.5
2018-08-31T09:42:05.315Z,17.5
2018-08-31T09:43:12.545Z,17.4
2018-08-31T09:44:19.762Z,17.4
2018-08-31T09:45:26.980Z,17.4
2018-08-31T09:46:34.197Z,17.3
2018-08-31T09:47:41.415Z,17.3
2018-08-31T09:48:48.651Z,17.3
2018-08-31T09:49:55.878Z,17.2
2018-08-31T09:51:02.829Z,17.2
2018-08-31T09:52:09.776Z,17
2018-08-31T09:53:16.997Z,16.9
2018-08-31T09:54:24.216Z,16.8
2018-08-31T09:55:31.433Z,16.8
2018-08-31T09:56:38.661Z,16.7
2018-08-31T09:57:45.881Z,16.7
2018-08-31T09:58:53.141Z,16.8
2018-08-31T10:00:00.362Z,16.8
2018-08-31T10:01:07.585Z,16.8
2018-08-31T10:02:14.802Z,16.8
2018-08-31T10:03:22.022Z,16.9
2018-08-31T10:04:29.246Z,16.9
2018-08-31T10:05:36.187Z,16.8
2018-08-31T10:06:43.407Z,16.9
2018-08-31T10:07:50.633Z,16.9
2018-08-31T10:08:57.850Z,17
2018-08-31T10:10:05.069Z,17
2018-08-31T10:11:12.287Z,16.9
2018-08-31T10:12:19.502Z,16.9
2018-08-31T10:13:26.870Z,17
2018-08-31T10:14:34.369Z,17.1
2018-08-31T10:15:41.310Z,17.2
2018-08-31T10:16:48.532Z,17.3
2018-08-31T10:17:55.748Z,17.4
2018-08-31T10:19:02.971Z,17.4
2018-08-31T10:20:10.191Z,17.6
2018-08-31T10:21:17.452Z,17.6
2018-08-31T10:22:24.395Z,17.8
2018-08-31T10:23:31.617Z,17.9
2018-08-31T10:24:38.287Z,18.1
2018-08-31T10:25:45.502Z,18.3
2018-08-31T10:26:52.750Z,18.4
2018-08-31T10:27:59.971Z,18.4
2018-08-31T10:29:07.205Z,18.5
2018-08-31T10:30:14.649Z,18.7
2018-08-31T10:31:22.173Z,18.7
2018-08-31T10:32:29.389Z,18.6
2018-08-31T10:33:36.605Z,18.8
2018-08-31T10:34:43.820Z,18.7
2018-08-31T10:35:51.041Z,18.8
2018-08-31T10:36:58.271Z,18.9
2018-08-31T10:38:05.477Z,19.1
2018-08-31T10:39:12.696Z,19.4
2018-08-31T10:40:20.084Z,19.5
2018-08-31T10:41:27.465Z,19.5
2018-08-31T10:42:34.678Z,19.7
2018-08-31T10:43:41.897Z,20.1
2018-08-31T10:44:49.115Z,20.4
2018-08-31T10:45:56.339Z,20.1
2018-08-31T10:47:03.558Z,20
2018-08-31T10:48:10.782Z,20.3
2018-08-31T10:49:18.000Z,20.4
2018-08-31T10:50:24.962Z,20.8
2018-08-31T10:51:31.902Z,21.3
2018-08-31T10:52:39.127Z,21.8
2018-08-31T10:53:46.345Z,22.2
2018-08-31T10:54:53.560Z,22.2
2018-08-31T10:56:00.789Z,22.2
2018-08-31T10:57:08.006Z,22.4
2018-08-31T10:58:15.251Z,22.2
2018-08-31T10:59:22.476Z,22.2
2018-08-31T11:00:29.692Z,22.3
2018-08-31T11:01:36.913Z,22.6
2018-08-31T11:02:44.131Z,22.8
2018-08-31T11:03:51.350Z,23
2018-08-31T11:04:58.572Z,23.2
2018-08-31T11:06:05.816Z,23.1
2018-08-31T11:07:13.030Z,22.5
2018-08-31T11:08:20.270Z,22.3
2018-08-31T11:09:27.502Z,22.2
2018-08-31T11:10:34.735Z,21.9
2018-08-31T11:11:41.980Z,21.7
2018-08-31T11:12:49.450Z,21.8
2018-08-31T11:13:56.793Z,22
2018-08-31T11:15:04.047Z,21.8
2018-08-31T11:16:11.294Z,21.6
2018-08-31T11:17:18.528Z,21.7
2018-08-31T11:18:25.754Z,21.9
2018-08-31T11:19:32.982Z,22.1
2018-08-31T11:20:40.204Z,21.9
2018-08-31T11:21:47.434Z,22
2018-08-31T11:22:54.652Z,21.8
2018-08-31T11:24:01.872Z,21.9
2018-08-31T11:25:09.142Z,21.6
2018-08-31T11:26:16.373Z,21.5
2018-08-31T11:27:23.606Z,21.4
2018-08-31T11:28:30.845Z,21.6
2018-08-31T11:29:38.068Z,21.4
2018-08-31T11:30:45.303Z,21.5
2018-08-31T11:31:51.978Z,21.6
2018-08-31T11:32:59.201Z,22
2018-08-31T11:34:06.443Z,22
2018-08-31T11:35:13.391Z,21.5
2018-08-31T11:36:20.612Z,21.4
2018-08-31T11:37:27.841Z,21.5
2018-08-31T11:38:35.074Z,21.5
2018-08-31T11:39:42.013Z,21.6
2018-08-31T11:40:49.239Z,21.7
2018-08-31T11:41:56.204Z,21.9
2018-08-31T11:43:03.421Z,21.9
2018-08-31T11:44:10.700Z,21.4
2018-08-31T11:45:17.930Z,21.7
2018-08-31T11:46:25.149Z,21.8
2018-08-31T11:47:32.367Z,21.8
2018-08-31T11:48:39.582Z,21.6
2018-08-31T11:49:46.803Z,21.7
2018-08-31T11:50:53.494Z,21.9
2018-08-31T11:52:00.434Z,21.9
2018-08-31T11:53:07.656Z,21.9
2018-08-31T11:54:14.896Z,21.7
2018-08-31T11:55:22.401Z,21.6
2018-08-31T11:56:29.910Z,21.6
2018-08-31T11:57:37.130Z,21.8
2018-08-31T11:58:44.358Z,21.7
2018-08-31T11:59:51.585Z,21.9
2018-08-31T12:00:58.894Z,21.7
2018-08-31T12:02:06.564Z,21.8
2018-08-31T12:03:14.268Z,21.8
2018-08-31T12:04:21.224Z,21.7
2018-08-31T12:05:28.443Z,21.8
2018-08-31T12:06:35.394Z,21.8
2018-08-31T12:07:42.367Z,21.9
2018-08-31T12:08:49.691Z,21.9
2018-08-31T12:09:56.920Z,21.9
2018-08-31T12:11:04.161Z,21.9
2018-08-31T12:12:11.387Z,21.9
2018-08-31T12:13:18.348Z,22
2018-08-31T12:14:25.617Z,22.1
2018-08-31T12:15:32.828Z,22.1
2018-08-31T12:16:40.049Z,22.2
2018-08-31T12:17:47.278Z,22
2018-08-31T12:18:54.505Z,21.7
2018-08-31T12:20:01.732Z,21.5
2018-08-31T12:21:09.055Z,21.5
2018-08-31T12:22:16.317Z,21.7
2018-08-31T12:23:23.579Z,21.8
2018-08-31T12:24:30.809Z,21.6
2018-08-31T12:25:38.026Z,21.5
2018-08-31T12:26:44.984Z,21.5
2018-08-31T12:27:52.201Z,21.7
2018-08-31T12:28:59.454Z,21.7
2018-08-31T12:30:06.681Z,21.5
2018-08-31T12:31:13.914Z,21.2
2018-08-31T12:32:21.131Z,21.2
2018-08-31T12:33:28.360Z,20.9
2018-08-31T12:34:35.578Z,20.8
2018-08-31T12:35:42.835Z,20.8
2018-08-31T12:36:50.058Z,20.8
2018-08-31T12:37:57.309Z,20.8
2018-08-31T12:39:04.531Z,21
2018-08-31T12:40:11.754Z,21
2018-08-31T12:41:18.982Z,21.1
2018-08-31T12:42:25.930Z,21.1
2018-08-31T12:43:33.161Z,21
2018-08-31T12:44:40.398Z,21.2
2018-08-31T12:45:47.623Z,21.1
2018-08-31T12:46:54.857Z,21
2018-08-31T12:48:02.083Z,21
2018-08-31T12:49:09.315Z,21
2018-08-31T12:50:16.270Z,20.7
2018-08-31T12:51:23.220Z,20.8
2018-08-31T12:52:30.449Z,20.8
2018-08-31T12:53:37.664Z,20.9
2018-08-31T12:54:44.897Z,20.9
2018-08-31T12:55:52.119Z,21
2018-08-31T12:56:59.388Z,21.2
2018-08-31T12:58:06.604Z,21.1
2018-08-31T12:59:13.838Z,20.7
2018-08-31T13:00:21.063Z,20.6
2018-08-31T13:01:28.284Z,20.6
2018-08-31T13:02:35.523Z,20.7
2018-08-31T13:03:42.745Z,20.7
2018-08-31T13:04:49.985Z,20.6
2018-08-31T13:05:57.207Z,20.6
2018-08-31T13:07:04.724Z,20.7
2018-08-31T13:08:12.249Z,20.8
2018-08-31T13:09:19.469Z,20.8
2018-08-31T13:10:26.692Z,20.8
2018-08-31T13:11:33.915Z,20.8
2018-08-31T13:12:41.137Z,20.8
2018-08-31T13:13:48.357Z,20.8
2018-08-31T13:14:55.582Z,20.8
2018-08-31T13:16:02.807Z,21
2018-08-31T13:17:10.025Z,21.1
2018-08-31T13:18:17.268Z,21.2
2018-08-31T13:19:24.501Z,21.1
2018-08-31T13:20:31.451Z,21
2018-08-31T13:21:38.668Z,20.9
2018-08-31T13:22:45.897Z,20.7
2018-08-31T13:23:53.120Z,20.7
2018-08-31T13:25:00.340Z,20.7
2018-08-31T13:26:07.599Z,20.8
2018-08-31T13:27:14.823Z,20.9
2018-08-31T13:28:22.054Z,20.6
2018-08-31T13:29:29.298Z,20.4
2018-08-31T13:30:36.532Z,20.3
2018-08-31T13:31:43.504Z,20.2
2018-08-31T13:32:50.728Z,20.1
2018-08-31T13:33:57.949Z,20.2
2018-08-31T13:35:05.176Z,20.3
2018-08-31T13:36:12.398Z,20.4
2018-08-31T13:37:19.629Z,20.5
2018-08-31T13:38:26.420Z,20.7
2018-08-31T13:39:34.149Z,20.8
2018-08-31T13:40:41.370Z,21
2018-08-31T13:41:48.589Z,20.9
2018-08-31T13:42:55.537Z,20.6
2018-08-31T13:44:03.012Z,20.6
2018-08-31T13:45:10.060Z,20.7
2018-08-31T13:46:17.289Z,20.8
2018-08-31T13:47:24.512Z,20.8
2018-08-31T13:48:31.740Z,20.9
2018-08-31T13:49:38.978Z,21
2018-08-31T13:50:45.932Z,20.9
2018-08-31T13:51:53.151Z,20.9
2018-08-31T13:53:00.382Z,20.8
2018-08-31T13:54:07.610Z,20.8
2018-08-31T13:55:14.829Z,20.7
2018-08-31T13:56:22.070Z,20.5
2018-08-31T13:57:29.309Z,20.4
2018-08-31T13:58:36.553Z,20.3
2018-08-31T13:59:43.769Z,20.3
2018-08-31T14:00:50.987Z,20.5
2018-08-31T14:01:58.210Z,20.7
2018-08-31T14:03:05.434Z,20.8
2018-08-31T14:04:12.659Z,20.7
2018-08-31T14:05:19.898Z,20.8
2018-08-31T14:06:27.125Z,20.7
2018-08-31T14:07:34.353Z,20.5
2018-08-31T14:08:41.580Z,20.6
2018-08-31T14:09:48.527Z,20.7
2018-08-31T14:10:55.751Z,20.8
2018-08-31T14:12:02.968Z,20.9
2018-08-31T14:13:09.926Z,20.9
2018-08-31T14:14:16.875Z,20.8
2018-08-31T14:15:24.097Z,20.7
2018-08-31T14:16:31.315Z,20.6
2018-08-31T14:17:38.533Z,20.6
2018-08-31T14:18:45.754Z,20.5
2018-08-31T14:19:52.704Z,20.5
2018-08-31T14:21:00.020Z,20.4
2018-08-31T14:22:07.298Z,20.5
2018-08-31T14:23:14.513Z,20.5
2018-08-31T14:24:21.466Z,20.5
2018-08-31T14:25:28.701Z,20.5
2018-08-31T14:26:35.925Z,20.5
2018-08-31T14:27:43.150Z,20.4
2018-08-31T14:28:50.374Z,20.3
2018-08-31T14:29:58.027Z,20.4
2018-08-31T14:31:05.599Z,20.5
2018-08-31T14:32:12.820Z,20.6
2018-08-31T14:33:20.045Z,20.6
2018-08-31T14:34:27.012Z,20.6
2018-08-31T14:35:34.258Z,20.6
2018-08-31T14:36:41.719Z,20.5
2018-08-31T14:37:49.456Z,20.5
2018-08-31T14:38:56.688Z,20.4
2018-08-31T14:40:03.917Z,20.4
2018-08-31T14:41:11.140Z,20.4
2018-08-31T14:42:18.358Z,20.4
2018-08-31T14:43:25.578Z,20.4
2018-08-31T14:44:32.812Z,20.3
2018-08-31T14:45:40.042Z,20.3
2018-08-31T14:46:47.259Z,20.3
2018-08-31T14:47:54.478Z,20.3
2018-08-31T14:49:01.708Z,20.4
2018-08-31T14:50:08.948Z,20.5
2018-08-31T14:51:16.179Z,20.5
2018-08-31T14:52:23.425Z,20.5
2018-08-31T14:53:30.377Z,20.5
2018-08-31T14:54:37.606Z,20.5
2018-08-31T14:55:44.830Z,20.4
2018-08-31T14:56:52.053Z,20.4
2018-08-31T14:57:58.970Z,20.2
2018-08-31T14:59:06.192Z,20.2